sensor_id;sensor_type;location;lat;lon;timestamp;pressure;altitude;pressure_sealevel;temperature;humidity
26112;BME280;13829;48.990;8.346;2022-11-04T00:01:54;99466.44;;;11.93;100.00
26112;BME280;13829;48.990;8.346;2022-11-04T00:04:22;99473.38;;;12.01;100.00
26112;BME280;13829;48.990;8.346;2022-11-04T00:06:52;99473.44;;;11.97;100.00
26112;BME280;13829;48.990;8.346;2022-11-04T00:09:20;99483.84;;;12.04;100.00
26112;BME280;13829;48.990;8.346;2022-11-04T00:11:48;99479.56;;;11.99;100.00
26112;BME280;13829;48.990;8.346;2022-11-04T00:14:47;99484.16;;;11.83;100.00
26112;BME280;13829;48.990;8.346;2022-11-04T00:17:14;99484.25;;;11.78;100.00
26112;BME280;13829;48.990;8.346;2022-11-04T00:19:49;99484.94;;;11.89;100.00
26112;BME280;13829;48.990;8.346;2022-11-04T00:22:36;99491.06;;;11.90;100.00
26112;BME280;13829;48.990;8.346;2022-11-04T00:25:21;99498.22;;;11.82;100.00
26112;BME280;13829;48.990;8.346;2022-11-04T00:28:10;99529.00;;;11.80;100.00
26112;BME280;13829;48.990;8.346;2022-11-04T00:30:56;99539.56;;;11.77;100.00
26112;BME280;13829;48.990;8.346;2022-11-04T00:33:43;99551.72;;;11.85;100.00
26112;BME280;13829;48.990;8.346;2022-11-04T00:36:09;99557.84;;;11.87;100.00
26112;BME280;13829;48.990;8.346;2022-11-04T00:38:38;99551.78;;;11.82;100.00
26112;BME280;13829;48.990;8.346;2022-11-04T00:41:05;99548.25;;;11.83;100.00
26112;BME280;13829;48.990;8.346;2022-11-04T00:43:50;99551.66;;;11.91;100.00
26112;BME280;13829;48.990;8.346;2022-11-04T00:46:17;99550.72;;;11.96;100.00
26112;BME280;13829;48.990;8.346;2022-11-04T00:48:44;99555.25;;;11.84;100.00
26112;BME280;13829;48.990;8.346;2022-11-04T00:51:11;99554.47;;;11.78;100.00
26112;BME280;13829;48.990;8.346;2022-11-04T00:56:08;99557.91;;;11.83;100.00
26112;BME280;13829;48.990;8.346;2022-11-04T00:58:35;99561.44;;;11.83;100.00
26112;BME280;13829;48.990;8.346;2022-11-04T01:01:07;99558.06;;;11.72;100.00
26112;BME280;13829;48.990;8.346;2022-11-04T01:03:35;99561.50;;;11.79;100.00
26112;BME280;13829;48.990;8.346;2022-11-04T01:06:02;99563.41;;;11.66;100.00
26112;BME280;13829;48.990;8.346;2022-11-04T01:08:29;99560.72;;;11.72;100.00
26112;BME280;13829;48.990;8.346;2022-11-04T01:11:00;99560.72;;;11.72;100.00
26112;BME280;13829;48.990;8.346;2022-11-04T01:13:28;99562.34;;;11.79;100.00
26112;BME280;13829;48.990;8.346;2022-11-04T01:15:57;99568.59;;;11.72;100.00
26112;BME280;13829;48.990;8.346;2022-11-04T01:18:24;99564.00;;;11.86;100.00
26112;BME280;13829;48.990;8.346;2022-11-04T01:20:52;99565.00;;;11.81;100.00
26112;BME280;13829;48.990;8.346;2022-11-04T01:23:19;99557.06;;;11.82;100.00
26112;BME280;13829;48.990;8.346;2022-11-04T01:25:49;99564.16;;;11.77;100.00
26112;BME280;13829;48.990;8.346;2022-11-04T01:28:16;99554.38;;;11.87;100.00
26112;BME280;13829;48.990;8.346;2022-11-04T01:30:44;99556.16;;;11.83;100.00
26112;BME280;13829;48.990;8.346;2022-11-04T01:33:11;99543.09;;;11.74;100.00
26112;BME280;13829;48.990;8.346;2022-11-04T01:35:38;99553.59;;;11.79;100.00
26112;BME280;13829;48.990;8.346;2022-11-04T01:38:05;99550.19;;;11.72;100.00
26112;BME280;13829;48.990;8.346;2022-11-04T01:40:35;99558.06;;;11.72;100.00
26112;BME280;13829;48.990;8.346;2022-11-04T01:43:02;99552.84;;;11.67;100.00
26112;BME280;13829;48.990;8.346;2022-11-04T01:45:30;99553.09;;;11.50;100.00
26112;BME280;13829;48.990;8.346;2022-11-04T01:48:04;99560.00;;;11.57;100.00
26112;BME280;13829;48.990;8.346;2022-11-04T01:50:36;99557.38;;;11.56;100.00
26112;BME280;13829;48.990;8.346;2022-11-04T01:53:09;99559.13;;;11.58;100.00
26112;BME280;13829;48.990;8.346;2022-11-04T01:55:42;99568.84;;;11.53;100.00
26112;BME280;13829;48.990;8.346;2022-11-04T01:58:16;99556.53;;;11.55;100.00
26112;BME280;13829;48.990;8.346;2022-11-04T02:00:44;99560.09;;;11.53;100.00
26112;BME280;13829;48.990;8.346;2022-11-04T02:03:17;99569.66;;;11.58;100.00
26112;BME280;13829;48.990;8.346;2022-11-04T02:05:46;99570.66;;;11.48;100.00
26112;BME280;13829;48.990;8.346;2022-11-04T02:08:15;99574.22;;;11.44;100.00
26112;BME280;13829;48.990;8.346;2022-11-04T02:10:49;99563.72;;;11.41;100.00
26112;BME280;13829;48.990;8.346;2022-11-04T02:13:18;99568.94;;;11.46;100.00
26112;BME280;13829;48.990;8.346;2022-11-04T02:15:55;99569.97;;;11.31;100.00
26112;BME280;13829;48.990;8.346;2022-11-04T02:18:47;99569.97;;;11.34;100.00
26112;BME280;13829;48.990;8.346;2022-11-04T02:24:54;99573.66;;;11.17;100.00
26112;BME280;13829;48.990;8.346;2022-11-04T02:27:49;99569.16;;;11.29;100.00
26112;BME280;13829;48.990;8.346;2022-11-04T02:30:21;99573.66;;;11.17;100.00
26112;BME280;13829;48.990;8.346;2022-11-04T02:33:16;99563.91;;;11.24;100.00
26112;BME280;13829;48.990;8.346;2022-11-04T02:35:58;99576.31;;;11.13;100.00
26112;BME280;13829;48.990;8.346;2022-11-04T02:38:41;99577.28;;;11.05;100.00
26112;BME280;13829;48.990;8.346;2022-11-04T02:41:22;99558.97;;;10.96;100.00
26112;BME280;13829;48.990;8.346;2022-11-04T02:44:02;99573.84;;;10.96;100.00
26112;BME280;13829;48.990;8.346;2022-11-04T02:46:40;99575.66;;;10.92;100.00
26112;BME280;13829;48.990;8.346;2022-11-04T02:49:13;99567.72;;;10.95;100.00
26112;BME280;13829;48.990;8.346;2022-11-04T02:51:48;99566.06;;;10.89;100.00
26112;BME280;13829;48.990;8.346;2022-11-04T02:54:23;99573.94;;;10.89;100.00
26112;BME280;13829;48.990;8.346;2022-11-04T02:56:55;99584.53;;;10.83;100.00
26112;BME280;13829;48.990;8.346;2022-11-04T02:59:30;99580.16;;;10.79;100.00
26112;BME280;13829;48.990;8.346;2022-11-04T03:02:04;99575.81;;;10.75;100.00
26112;BME280;13829;48.990;8.346;2022-11-04T03:04:39;99580.97;;;10.87;100.00
26112;BME280;13829;48.990;8.346;2022-11-04T03:07:11;99584.56;;;10.77;100.00
26112;BME280;13829;48.990;8.346;2022-11-04T03:09:45;99590.69;;;10.77;100.00
26112;BME280;13829;48.990;8.346;2022-11-04T03:12:19;99591.59;;;10.75;100.00
26112;BME280;13829;48.990;8.346;2022-11-04T03:14:53;99580.16;;;10.77;100.00
26112;BME280;13829;48.990;8.346;2022-11-04T03:17:31;99568.78;;;10.77;100.00
26112;BME280;13829;48.990;8.346;2022-11-04T03:20:04;99560.84;;;10.82;100.00
26112;BME280;13829;48.990;8.346;2022-11-04T03:22:36;99570.47;;;10.83;100.00
26112;BME280;13829;48.990;8.346;2022-11-04T03:25:06;99571.38;;;10.80;100.00
26112;BME280;13829;48.990;8.346;2022-11-04T03:27:44;99571.34;;;10.85;100.00
26112;BME280;13829;48.990;8.346;2022-11-04T03:30:17;99571.38;;;10.80;100.00
26112;BME280;13829;48.990;8.346;2022-11-04T03:32:58;99558.28;;;10.77;100.00
26112;BME280;13829;48.990;8.346;2022-11-04T03:35:30;99564.44;;;10.71;100.00
26112;BME280;13829;48.990;8.346;2022-11-04T03:37:58;99575.03;;;10.64;100.00
26112;BME280;13829;48.990;8.346;2022-11-04T03:40:25;99588.22;;;10.57;100.00
26112;BME280;13829;48.990;8.346;2022-11-04T03:42:58;99583.94;;;10.46;100.00
26112;BME280;13829;48.990;8.346;2022-11-04T03:45:26;99580.41;;;10.48;100.00
26112;BME280;13829;48.990;8.346;2022-11-04T03:47:55;99585.66;;;10.51;100.00
26112;BME280;13829;48.990;8.346;2022-11-04T03:50:28;99592.63;;;10.54;100.00
26112;BME280;13829;48.990;8.346;2022-11-04T03:52:56;99581.34;;;10.44;100.00
26112;BME280;13829;48.990;8.346;2022-11-04T03:55:36;99579.56;;;10.46;100.00
26112;BME280;13829;48.990;8.346;2022-11-04T03:58:19;99579.63;;;10.34;100.00
26112;BME280;13829;48.990;8.346;2022-11-04T04:01:00;99577.88;;;10.39;100.00
26112;BME280;13829;48.990;8.346;2022-11-04T04:03:34;99562.97;;;10.33;100.00
26112;BME280;13829;48.990;8.346;2022-11-04T04:06:12;99562.06;;;10.42;100.00
26112;BME280;13829;48.990;8.346;2022-11-04T04:08:46;99563.78;;;10.46;100.00
26112;BME280;13829;48.990;8.346;2022-11-04T04:11:20;99563.72;;;10.52;100.00
26112;BME280;13829;48.990;8.346;2022-11-04T04:14:02;99552.38;;;10.50;100.00
26112;BME280;13829;48.990;8.346;2022-11-04T04:16:36;99548.00;;;10.46;100.00
26112;BME280;13829;48.990;8.346;2022-11-04T04:19:11;99538.41;;;10.45;100.00
26112;BME280;13829;48.990;8.346;2022-11-04T04:21:52;99538.41;;;10.42;100.00
26112;BME280;13829;48.990;8.346;2022-11-04T04:24:36;99533.09;;;10.48;100.00
26112;BME280;13829;48.990;8.346;2022-11-04T04:27:23;99534.97;;;10.31;100.00
26112;BME280;13829;48.990;8.346;2022-11-04T04:30:00;99542.00;;;10.27;100.00
26112;BME280;13829;48.990;8.346;2022-11-04T04:32:33;99534.13;;;10.25;100.00
26112;BME280;13829;48.990;8.346;2022-11-04T04:35:03;99528.88;;;10.25;100.00
26112;BME280;13829;48.990;8.346;2022-11-04T04:37:48;99528.88;;;10.25;100.00
26112;BME280;13829;48.990;8.346;2022-11-04T04:40:22;99544.63;;;10.28;100.00
26112;BME280;13829;48.990;8.346;2022-11-04T04:43:15;99548.16;;;10.27;100.00
26112;BME280;13829;48.990;8.346;2022-11-04T04:46:00;99542.06;;;10.22;100.00
26112;BME280;13829;48.990;8.346;2022-11-04T04:48:28;99546.41;;;10.25;100.00
26112;BME280;13829;48.990;8.346;2022-11-04T04:50:56;99540.31;;;10.20;100.00
26112;BME280;13829;48.990;8.346;2022-11-04T04:53:26;99536.81;;;10.22;100.00
26112;BME280;13829;48.990;8.346;2022-11-04T04:55:53;99533.34;;;10.17;100.00
26112;BME280;13829;48.990;8.346;2022-11-04T04:58:20;99524.56;;;10.15;100.00
26112;BME280;13829;48.990;8.346;2022-11-04T05:00:47;99530.72;;;10.14;100.00
26112;BME280;13829;48.990;8.346;2022-11-04T05:03:14;99527.22;;;10.15;100.00
26112;BME280;13829;48.990;8.346;2022-11-04T05:05:41;99521.94;;;10.17;100.00
26112;BME280;13829;48.990;8.346;2022-11-04T05:08:09;99526.38;;;10.10;100.00
26112;BME280;13829;48.990;8.346;2022-11-04T05:10:36;99530.72;;;10.14;100.00
26112;BME280;13829;48.990;8.346;2022-11-04T05:13:03;99529.91;;;10.07;100.00
26112;BME280;13829;48.990;8.346;2022-11-04T05:15:47;99522.06;;;10.00;100.00
26112;BME280;13829;48.990;8.346;2022-11-04T05:18:14;99520.31;;;9.99;100.00
26112;BME280;13829;48.990;8.346;2022-11-04T05:20:41;99517.69;;;9.99;100.00
26112;BME280;13829;48.990;8.346;2022-11-04T05:23:10;99501.06;;;10.00;100.00
26112;BME280;13829;48.990;8.346;2022-11-04T05:25:38;99504.53;;;10.02;100.00
26112;BME280;13829;48.990;8.346;2022-11-04T05:28:05;99493.06;;;10.14;100.00
26112;BME280;13829;48.990;8.346;2022-11-04T05:30:34;99486.97;;;10.10;100.00
26112;BME280;13829;48.990;8.346;2022-11-04T05:33:01;99480.81;;;10.12;100.00
26112;BME280;13829;48.990;8.346;2022-11-04T05:35:28;99471.16;;;10.13;100.00
26112;BME280;13829;48.990;8.346;2022-11-04T05:37:55;99472.91;;;10.14;100.00
26112;BME280;13829;48.990;8.346;2022-11-04T05:40:24;99477.25;;;10.17;100.00
26112;BME280;13829;48.990;8.346;2022-11-04T05:42:51;99484.22;;;10.24;100.00
26112;BME280;13829;48.990;8.346;2022-11-04T05:45:18;99494.75;;;10.19;100.00
26112;BME280;13829;48.990;8.346;2022-11-04T05:47:45;99490.28;;;10.32;100.00
26112;BME280;13829;48.990;8.346;2022-11-04T05:50:12;99495.53;;;10.37;100.00
26112;BME280;13829;48.990;8.346;2022-11-04T05:52:39;99503.31;;;10.49;100.00
26112;BME280;13829;48.990;8.346;2022-11-04T05:55:07;99498.06;;;10.48;100.00
26112;BME280;13829;48.990;8.346;2022-11-04T05:57:35;99508.59;;;10.44;100.00
26112;BME280;13829;48.990;8.346;2022-11-04T06:00:04;99504.31;;;10.33;100.00
26112;BME280;13829;48.990;8.346;2022-11-04T06:02:31;99506.19;;;10.15;100.00
26112;BME280;13829;48.990;8.346;2022-11-04T06:04:58;99501.91;;;10.03;100.00
26112;BME280;13829;48.990;8.346;2022-11-04T06:07:25;99511.53;;;10.03;100.00
26112;BME280;13829;48.990;8.346;2022-11-04T06:09:52;99508.06;;;10.01;100.00
26112;BME280;13829;48.990;8.346;2022-11-04T06:12:19;99511.56;;;9.96;100.00
26112;BME280;13829;48.990;8.346;2022-11-04T06:14:47;99522.03;;;10.06;100.00
26112;BME280;13829;48.990;8.346;2022-11-04T06:17:16;99526.28;;;10.22;100.00
26112;BME280;13829;48.990;8.346;2022-11-04T06:19:43;99521.84;;;10.29;100.00
26112;BME280;13829;48.990;8.346;2022-11-04T06:22:12;99517.56;;;10.16;100.00
26112;BME280;13829;48.990;8.346;2022-11-04T06:24:39;99515.94;;;10.01;100.00
26112;BME280;13829;48.990;8.346;2022-11-04T06:27:06;99508.91;;;9.98;100.00
26112;BME280;13829;48.990;8.346;2022-11-04T06:29:33;99506.28;;;9.98;100.00
26112;BME280;13829;48.990;8.346;2022-11-04T06:32:02;99512.47;;;9.92;100.00
26112;BME280;13829;48.990;8.346;2022-11-04T06:34:29;99505.44;;;9.98;100.00
26112;BME280;13829;48.990;8.346;2022-11-04T06:36:56;99515.13;;;9.89;100.00
26112;BME280;13829;48.990;8.346;2022-11-04T06:39:23;99523.91;;;9.85;100.00
26112;BME280;13829;48.990;8.346;2022-11-04T06:41:50;99525.75;;;9.71;100.00
26112;BME280;13829;48.990;8.346;2022-11-04T06:44:17;99521.38;;;9.68;100.00
26112;BME280;13829;48.990;8.346;2022-11-04T06:46:44;99520.50;;;9.68;100.00
26112;BME280;13829;48.990;8.346;2022-11-04T06:49:15;99519.66;;;9.64;100.00
26112;BME280;13829;48.990;8.346;2022-11-04T06:51:42;99520.50;;;9.71;100.00
26112;BME280;13829;48.990;8.346;2022-11-04T06:54:10;99537.16;;;9.67;100.00
26112;BME280;13829;48.990;8.346;2022-11-04T06:56:37;99539.72;;;9.71;100.00
26112;BME280;13829;48.990;8.346;2022-11-04T06:59:05;99540.59;;;9.70;100.00
26112;BME280;13829;48.990;8.346;2022-11-04T07:01:35;99546.75;;;9.71;100.00
26112;BME280;13829;48.990;8.346;2022-11-04T07:04:03;99541.50;;;9.71;100.00
26112;BME280;13829;48.990;8.346;2022-11-04T07:06:32;99545.84;;;9.75;100.00
26112;BME280;13829;48.990;8.346;2022-11-04T07:09:01;99545.84;;;9.73;100.00
26112;BME280;13829;48.990;8.346;2022-11-04T07:11:31;99551.09;;;9.78;100.00
26112;BME280;13829;48.990;8.346;2022-11-04T07:13:58;99558.91;;;9.87;100.00
26112;BME280;13829;48.990;8.346;2022-11-04T07:16:25;99554.53;;;9.89;100.00
26112;BME280;13829;48.990;8.346;2022-11-04T07:18:53;99554.53;;;9.89;100.00
26112;BME280;13829;48.990;8.346;2022-11-04T07:21:20;99558.88;;;9.95;100.00
26112;BME280;13829;48.990;8.346;2022-11-04T07:23:48;99555.34;;;9.98;100.00
26112;BME280;13829;48.990;8.346;2022-11-04T07:26:16;99555.28;;;10.07;100.00
26112;BME280;13829;48.990;8.346;2022-11-04T07:28:43;99552.59;;;10.13;100.00
26112;BME280;13829;48.990;8.346;2022-11-04T07:31:12;99542.94;;;10.21;100.00
26112;BME280;13829;48.990;8.346;2022-11-04T07:33:40;99546.34;;;10.29;100.00
26112;BME280;13829;48.990;8.346;2022-11-04T07:36:11;99547.16;;;10.44;100.00
26112;BME280;13829;48.990;8.346;2022-11-04T07:38:38;99545.31;;;10.57;100.00
26112;BME280;13829;48.990;8.346;2022-11-04T07:41:07;99552.22;;;10.67;100.00
26112;BME280;13829;48.990;8.346;2022-11-04T07:43:34;99537.22;;;10.77;100.00
26112;BME280;13829;48.990;8.346;2022-11-04T07:46:03;99546.84;;;10.80;100.00
26112;BME280;13829;48.990;8.346;2022-11-04T07:48:30;99532.69;;;10.91;100.00
26112;BME280;13829;48.990;8.346;2022-11-04T07:50:59;99533.50;;;11.00;100.00
26112;BME280;13829;48.990;8.346;2022-11-04T07:53:28;99532.59;;;11.02;100.00
26112;BME280;13829;48.990;8.346;2022-11-04T07:55:55;99527.25;;;11.10;100.00
26112;BME280;13829;48.990;8.346;2022-11-04T07:58:24;99522.75;;;11.20;100.00
26112;BME280;13829;48.990;8.346;2022-11-04T08:00:58;99522.66;;;11.28;100.00
26112;BME280;13829;48.990;8.346;2022-11-04T08:03:25;99517.19;;;11.43;100.00
26112;BME280;13829;48.990;8.346;2022-11-04T08:05:55;99509.13;;;11.54;100.00
26112;BME280;13829;48.990;8.346;2022-11-04T08:08:22;99509.78;;;11.73;100.00
26112;BME280;13829;48.990;8.346;2022-11-04T08:10:53;99506.13;;;11.80;100.00
26112;BME280;13829;48.990;8.346;2022-11-04T08:13:21;99508.72;;;11.85;100.00
26112;BME280;13829;48.990;8.346;2022-11-04T08:15:49;99502.47;;;11.90;100.00
26112;BME280;13829;48.990;8.346;2022-11-04T08:18:16;99505.06;;;11.95;100.00
26112;BME280;13829;48.990;8.346;2022-11-04T08:20:47;99497.91;;;12.05;100.00
26112;BME280;13829;48.990;8.346;2022-11-04T08:23:15;99506.53;;;12.16;100.00
26112;BME280;13829;48.990;8.346;2022-11-04T08:25:42;99509.06;;;12.22;100.00
26112;BME280;13829;48.990;8.346;2022-11-04T08:28:09;99499.28;;;12.29;100.00
26112;BME280;13829;48.990;8.346;2022-11-04T08:30:52;99500.00;;;12.39;100.00
26112;BME280;13829;48.990;8.346;2022-11-04T08:33:19;99506.88;;;12.48;100.00
26112;BME280;13829;48.990;8.346;2022-11-04T08:35:46;99503.22;;;12.56;100.00
26112;BME280;13829;48.990;8.346;2022-11-04T08:38:13;99503.16;;;12.60;100.00
26112;BME280;13829;48.990;8.346;2022-11-04T08:40:40;99496.88;;;12.65;99.47
26112;BME280;13829;48.990;8.346;2022-11-04T08:43:07;99500.31;;;12.72;99.92
26112;BME280;13829;48.990;8.346;2022-11-04T08:45:39;99493.94;;;12.82;97.13
26112;BME280;13829;48.990;8.346;2022-11-04T08:48:08;99496.72;;;12.75;96.92
26112;BME280;13829;48.990;8.346;2022-11-04T08:50:36;99509.09;;;12.71;97.85
26112;BME280;13829;48.990;8.346;2022-11-04T08:53:04;99507.41;;;12.68;97.55
26112;BME280;13829;48.990;8.346;2022-11-04T08:55:32;99509.00;;;12.77;99.09
26112;BME280;13829;48.990;8.346;2022-11-04T08:58:00;99509.66;;;12.88;99.07
26112;BME280;13829;48.990;8.346;2022-11-04T09:00:27;99512.16;;;12.96;99.04
26112;BME280;13829;48.990;8.346;2022-11-04T09:02:54;99514.41;;;13.16;97.48
26112;BME280;13829;48.990;8.346;2022-11-04T09:05:23;99518.41;;;13.36;96.20
26112;BME280;13829;48.990;8.346;2022-11-04T09:07:51;99513.88;;;13.44;96.04
26112;BME280;13829;48.990;8.346;2022-11-04T09:10:18;99520.81;;;13.48;94.52
26112;BME280;13829;48.990;8.346;2022-11-04T09:12:45;99517.28;;;13.49;95.13
26112;BME280;13829;48.990;8.346;2022-11-04T09:15:12;99516.94;;;13.65;93.30
26112;BME280;13829;48.990;8.346;2022-11-04T09:17:39;99515.06;;;13.70;93.61
26112;BME280;13829;48.990;8.346;2022-11-04T09:20:09;99518.34;;;13.81;94.04
26112;BME280;13829;48.990;8.346;2022-11-04T09:22:38;99516.31;;;13.93;93.22
26112;BME280;13829;48.990;8.346;2022-11-04T09:25:05;99517.84;;;14.03;92.35
26112;BME280;13829;48.990;8.346;2022-11-04T09:27:32;99521.09;;;14.14;91.75
26112;BME280;13829;48.990;8.346;2022-11-04T09:29:59;99523.75;;;14.14;90.53
26112;BME280;13829;48.990;8.346;2022-11-04T09:32:26;99540.22;;;14.26;86.13
26112;BME280;13829;48.990;8.346;2022-11-04T09:34:53;99541.03;;;14.29;84.63
26112;BME280;13829;48.990;8.346;2022-11-04T09:37:20;99542.63;;;14.35;83.20
26112;BME280;13829;48.990;8.346;2022-11-04T09:39:48;99542.50;;;14.41;83.89
26112;BME280;13829;48.990;8.346;2022-11-04T09:42:38;99549.34;;;14.50;84.32
26112;BME280;13829;48.990;8.346;2022-11-04T09:45:15;99549.19;;;14.56;81.47
26112;BME280;13829;48.990;8.346;2022-11-04T09:47:46;99545.69;;;14.56;82.54
26112;BME280;13829;48.990;8.346;2022-11-04T09:50:21;99549.47;;;14.44;81.64
26112;BME280;13829;48.990;8.346;2022-11-04T09:52:56;99545.28;;;14.35;83.03
26112;BME280;13829;48.990;8.346;2022-11-04T09:55:30;99548.16;;;14.26;83.75
26112;BME280;13829;48.990;8.346;2022-11-04T09:57:58;99550.75;;;14.27;83.68
26112;BME280;13829;48.990;8.346;2022-11-04T10:00:30;99549.88;;;14.28;82.05
26112;BME280;13829;48.990;8.346;2022-11-04T10:03:19;99555.97;;;14.32;80.82
26112;BME280;13829;48.990;8.346;2022-11-04T10:06:10;99558.94;;;14.18;79.64
26112;BME280;13829;48.990;8.346;2022-11-04T10:08:59;99560.06;;;14.08;82.39
26112;BME280;13829;48.990;8.346;2022-11-04T10:11:38;99567.66;;;13.82;83.75
26112;BME280;13829;48.990;8.346;2022-11-04T10:14:29;99569.78;;;13.65;86.63
26112;BME280;13829;48.990;8.346;2022-11-04T10:17:12;99562.03;;;13.57;88.15
26112;BME280;13829;48.990;8.346;2022-11-04T10:20:00;99567.22;;;13.62;89.35
26112;BME280;13829;48.990;8.346;2022-11-04T10:22:33;99556.66;;;13.60;90.68
26112;BME280;13829;48.990;8.346;2022-11-04T10:25:12;99554.06;;;13.59;91.57
26112;BME280;13829;48.990;8.346;2022-11-04T10:27:45;99558.00;;;13.81;87.98
26112;BME280;13829;48.990;8.346;2022-11-04T10:30:17;99551.09;;;13.74;87.59
26112;BME280;13829;48.990;8.346;2022-11-04T10:32:58;99546.66;;;13.76;88.05
26112;BME280;13829;48.990;8.346;2022-11-04T10:35:34;99539.31;;;13.89;89.96
26112;BME280;13829;48.990;8.346;2022-11-04T10:38:18;99535.38;;;14.07;86.39
26112;BME280;13829;48.990;8.346;2022-11-04T10:40:50;99535.22;;;14.15;86.49
26112;BME280;13829;48.990;8.346;2022-11-04T10:43:28;99536.59;;;14.30;86.48
26112;BME280;13829;48.990;8.346;2022-11-04T10:46:13;99532.66;;;14.46;86.28
26112;BME280;13829;48.990;8.346;2022-11-04T10:48:49;99534.41;;;14.47;84.91
26112;BME280;13829;48.990;8.346;2022-11-04T10:51:17;99539.84;;;14.43;88.11
26112;BME280;13829;48.990;8.346;2022-11-04T10:53:49;99539.94;;;14.38;87.79
26112;BME280;13829;48.990;8.346;2022-11-04T10:56:32;99535.97;;;14.18;88.96
26112;BME280;13829;48.990;8.346;2022-11-04T10:59:18;99541.41;;;14.14;93.28
26112;BME280;13829;48.990;8.346;2022-11-04T11:01:51;99531.97;;;14.02;94.22
26112;BME280;13829;48.990;8.346;2022-11-04T11:04:28;99535.88;;;13.85;95.29
26112;BME280;13829;48.990;8.346;2022-11-04T11:06:58;99539.56;;;13.78;99.10
26112;BME280;13829;48.990;8.346;2022-11-04T11:09:28;99548.44;;;13.74;100.00
26112;BME280;13829;48.990;8.346;2022-11-04T11:11:59;99539.63;;;13.75;100.00
26112;BME280;13829;48.990;8.346;2022-11-04T11:14:35;99548.19;;;13.86;100.00
26112;BME280;13829;48.990;8.346;2022-11-04T11:17:21;99548.91;;;13.93;100.00
26112;BME280;13829;48.990;8.346;2022-11-04T11:19:54;99541.09;;;13.89;100.00
26112;BME280;13829;48.990;8.346;2022-11-04T11:22:33;99539.84;;;14.05;98.68
26112;BME280;13829;48.990;8.346;2022-11-04T11:25:26;99546.38;;;13.89;100.00
26112;BME280;13829;48.990;8.346;2022-11-04T11:27:57;99537.38;;;13.96;100.00
26112;BME280;13829;48.990;8.346;2022-11-04T11:30:29;99532.00;;;14.00;100.00
26112;BME280;13829;48.990;8.346;2022-11-04T11:33:01;99535.63;;;13.96;100.00
26112;BME280;13829;48.990;8.346;2022-11-04T11:35:34;99531.06;;;14.03;100.00
26112;BME280;13829;48.990;8.346;2022-11-04T11:38:18;99517.78;;;14.06;99.95
26112;BME280;13829;48.990;8.346;2022-11-04T11:40:48;99507.94;;;14.13;99.23
26112;BME280;13829;48.990;8.346;2022-11-04T11:43:25;99509.69;;;14.14;98.99
26112;BME280;13829;48.990;8.346;2022-11-04T11:45:55;99510.63;;;14.11;98.89
26112;BME280;13829;48.990;8.346;2022-11-04T11:48:31;99512.50;;;14.06;98.25
26112;BME280;13829;48.990;8.346;2022-11-04T11:50:59;99508.16;;;14.03;97.52
26112;BME280;13829;48.990;8.346;2022-11-04T11:53:28;99507.13;;;14.09;100.00
26112;BME280;13829;48.990;8.346;2022-11-04T11:56:20;99495.00;;;14.00;100.00
26112;BME280;13829;48.990;8.346;2022-11-04T11:58:56;99489.91;;;13.93;99.19
26112;BME280;13829;48.990;8.346;2022-11-04T12:01:38;99493.56;;;13.85;99.24
26112;BME280;13829;48.990;8.346;2022-11-04T12:04:07;99495.47;;;13.80;99.91
26112;BME280;13829;48.990;8.346;2022-11-04T12:06:48;99493.56;;;13.85;100.00
26112;BME280;13829;48.990;8.346;2022-11-04T12:09:31;99485.56;;;13.90;100.00
26112;BME280;13829;48.990;8.346;2022-11-04T12:12:39;99482.81;;;13.95;95.85
26112;BME280;13829;48.990;8.346;2022-11-04T12:15:27;99475.50;;;14.06;96.77
26112;BME280;13829;48.990;8.346;2022-11-04T12:18:34;99489.84;;;13.94;96.26
26112;BME280;13829;48.990;8.346;2022-11-04T12:21:12;99494.94;;;14.02;94.09
26112;BME280;13829;48.990;8.346;2022-11-04T12:23:49;99489.75;;;13.99;94.34
26112;BME280;13829;48.990;8.346;2022-11-04T12:26:34;99491.63;;;13.94;93.76
26112;BME280;13829;48.990;8.346;2022-11-04T12:29:30;99487.53;;;13.80;91.21
26112;BME280;13829;48.990;8.346;2022-11-04T12:32:13;99487.25;;;13.93;93.14
26112;BME280;13829;48.990;8.346;2022-11-04T12:34:57;99482.72;;;13.98;92.02
26112;BME280;13829;48.990;8.346;2022-11-04T12:37:38;99484.59;;;13.93;92.74
26112;BME280;13829;48.990;8.346;2022-11-04T12:40:15;99489.91;;;13.93;90.89
26112;BME280;13829;48.990;8.346;2022-11-04T12:43:03;99484.59;;;13.93;90.72
26112;BME280;13829;48.990;8.346;2022-11-04T12:45:51;99486.22;;;14.00;89.65
26112;BME280;13829;48.990;8.346;2022-11-04T12:48:43;99491.63;;;13.94;89.90
26112;BME280;13829;48.990;8.346;2022-11-04T12:51:25;99491.56;;;13.97;89.48
26112;BME280;13829;48.990;8.346;2022-11-04T12:54:15;99494.94;;;14.02;88.66
26112;BME280;13829;48.990;8.346;2022-11-04T12:56:47;99494.25;;;13.95;87.66
26112;BME280;13829;48.990;8.346;2022-11-04T13:00:09;99501.50;;;13.87;88.33
26112;BME280;13829;48.990;8.346;2022-11-04T13:02:43;99499.53;;;13.95;88.60
26112;BME280;13829;48.990;8.346;2022-11-04T13:05:33;99491.13;;;14.15;88.57
26112;BME280;13829;48.990;8.346;2022-11-04T13:08:12;99505.38;;;14.08;89.17
26112;BME280;13829;48.990;8.346;2022-11-04T13:10:47;99507.69;;;14.22;86.98
26112;BME280;13829;48.990;8.346;2022-11-04T13:13:23;99514.03;;;14.51;84.84
26112;BME280;13829;48.990;8.346;2022-11-04T13:15:57;99513.44;;;14.76;80.58
26112;BME280;13829;48.990;8.346;2022-11-04T13:18:30;99516.25;;;15.03;81.88
26112;BME280;13829;48.990;8.346;2022-11-04T13:21:03;99513.38;;;15.10;79.93
26112;BME280;13829;48.990;8.346;2022-11-04T13:23:38;99522.25;;;15.09;78.79
26112;BME280;13829;48.990;8.346;2022-11-04T13:26:13;99532.94;;;15.05;79.38
26112;BME280;13829;48.990;8.346;2022-11-04T13:28:43;99529.69;;;14.95;79.24
26112;BME280;13829;48.990;8.346;2022-11-04T13:31:20;99541.19;;;14.94;79.91
26112;BME280;13829;48.990;8.346;2022-11-04T13:33:54;99540.47;;;14.89;79.96